Time;durP1;ratioP1;P1;durP2;ratioP2;P2;SDS_P1;SDS_P2;PMS_P1;PMS_P2;Temp;Humidity;BMP_temperature;BMP_pressure;BME280_temperature;BME280_humidity;BME280_pressure;Samples;Min_cycle;Max_cycle;Signal;HPM_P1;HPM_P2
2023/12/13 00:00:54;;;;;;;5.82;1.30;;;;;;;;;;5048223;28;20100;-66
2023/12/13 00:03:20;;;;;;;4.60;1.30;;;;;;;;;;5050716;28;20041;-66
2023/12/13 00:05:47;;;;;;;4.78;1.42;;;;;;;;;;5047363;28;20507;-65
2023/12/13 00:08:13;;;;;;;4.47;1.17;;;;;;;;;;5052637;28;20045;-66
2023/12/13 00:10:40;;;;;;;4.00;1.48;;;;;;;;;;5047289;28;20049;-65
2023/12/13 00:13:06;;;;;;;8.05;1.40;;;;;;;;;;5047215;28;20518;-66
2023/12/13 00:15:33;;;;;;;4.82;1.10;;;;;;;;;;5051818;28;20045;-65
2023/12/13 00:18:01;;;;;;;4.85;1.40;;;;;;;;;;5040143;28;20137;-66
2023/12/13 00:20:27;;;;;;;5.90;1.42;;;;;;;;;;5046911;28;20102;-66
2023/12/13 00:22:55;;;;;;;6.82;1.63;;;;;;;;;;5044765;28;20041;-66
2023/12/13 00:25:21;;;;;;;4.55;1.88;;;;;;;;;;5041561;28;20060;-66
2023/12/13 00:27:51;;;;;;;5.60;1.38;;;;;;;;;;5044071;28;20052;-65
2023/12/13 00:30:18;;;;;;;7.85;2.10;;;;;;;;;;5050691;28;20052;-66
2023/12/13 00:32:44;;;;;;;5.35;1.30;;;;;;;;;;5043270;28;20075;-66
2023/12/13 00:35:12;;;;;;;5.07;1.20;;;;;;;;;;5047677;28;20049;-66
2023/12/13 00:37:39;;;;;;;5.15;2.05;;;;;;;;;;5051805;28;20531;-66
2023/12/13 00:40:07;;;;;;;5.18;1.50;;;;;;;;;;5046605;28;20049;-66
2023/12/13 00:42:34;;;;;;;5.38;1.92;;;;;;;;;;5043648;28;20049;-66
2023/12/13 00:45:00;;;;;;;4.32;1.70;;;;;;;;;;5048779;28;20060;-66
2023/12/13 00:47:27;;;;;;;4.45;1.20;;;;;;;;;;5048004;28;20047;-65
2023/12/13 00:49:54;;;;;;;3.85;1.20;;;;;;;;;;5040773;28;20045;-66
2023/12/13 00:52:21;;;;;;;5.13;0.93;;;;;;;;;;5046376;28;20413;-66
2023/12/13 00:54:50;;;;;;;3.88;1.10;;;;;;;;;;5043541;28;20547;-66
2023/12/13 00:57:17;;;;;;;5.95;1.17;;;;;;;;;;5042398;28;20045;-65
2023/12/13 00:59:43;;;;;;;2.03;0.93;;;;;;;;;;5045974;28;20107;-65
2023/12/13 01:02:14;;;;;;;9.75;1.70;;;;;;;;;;5051439;28;20041;-67
2023/12/13 01:04:44;;;;;;;3.63;1.13;;;;;;;;;;5051852;28;20124;-66
2023/12/13 01:07:11;;;;;;;5.47;1.30;;;;;;;;;;5051600;28;20048;-66
2023/12/13 01:09:39;;;;;;;4.90;0.93;;;;;;;;;;5051521;28;20048;-66
2023/12/13 01:12:06;;;;;;;5.82;1.00;;;;;;;;;;5051702;28;20049;-65
2023/12/13 01:14:32;;;;;;;5.90;0.98;;;;;;;;;;5051821;28;20048;-66
2023/12/13 01:16:59;;;;;;;6.65;1.20;;;;;;;;;;5051443;28;20053;-66
2023/12/13 01:19:26;;;;;;;7.95;1.30;;;;;;;;;;5051575;28;20143;-66
2023/12/13 01:21:52;;;;;;;8.73;1.30;;;;;;;;;;5051033;28;20045;-66
2023/12/13 01:24:19;;;;;;;5.30;1.45;;;;;;;;;;5051601;28;20051;-65
2023/12/13 01:26:47;;;;;;;6.82;1.48;;;;;;;;;;5051579;28;20040;-65
2023/12/13 01:29:13;;;;;;;7.90;1.65;;;;;;;;;;5051442;28;20048;-66
2023/12/13 01:31:40;;;;;;;4.05;1.50;;;;;;;;;;5050985;28;20045;-65
2023/12/13 01:34:07;;;;;;;4.60;1.13;;;;;;;;;;5051188;28;20045;-65
2023/12/13 01:36:34;;;;;;;5.32;1.27;;;;;;;;;;5051001;28;20068;-66
2023/12/13 01:39:00;;;;;;;5.43;1.40;;;;;;;;;;5051204;28;20049;-66
2023/12/13 01:41:27;;;;;;;2.42;1.00;;;;;;;;;;5050475;28;20052;-66
2023/12/13 01:43:55;;;;;;;5.57;1.08;;;;;;;;;;5050792;28;20055;-66
2023/12/13 01:46:21;;;;;;;6.50;1.33;;;;;;;;;;5051087;28;20055;-66
2023/12/13 01:48:48;;;;;;;7.10;1.52;;;;;;;;;;5050926;28;20051;-66
2023/12/13 01:51:15;;;;;;;4.72;1.35;;;;;;;;;;5050639;28;20128;-67
2023/12/13 01:53:43;;;;;;;9.95;1.77;;;;;;;;;;5051267;28;20098;-66
2023/12/13 01:56:12;;;;;;;5.57;1.50;;;;;;;;;;5050839;28;20136;-66
2023/12/13 01:58:39;;;;;;;3.20;1.35;;;;;;;;;;5051061;28;20556;-66
2023/12/13 02:01:08;;;;;;;1.88;1.10;;;;;;;;;;5050591;28;20041;-66
2023/12/13 02:03:36;;;;;;;6.03;1.20;;;;;;;;;;5050713;28;20480;-66
2023/12/13 02:06:03;;;;;;;9.48;1.52;;;;;;;;;;5050868;28;20287;-65
2023/12/13 02:08:30;;;;;;;4.53;1.40;;;;;;;;;;5051119;28;20053;-67
2023/12/13 02:10:59;;;;;;;6.05;1.35;;;;;;;;;;5050594;28;20049;-66
2023/12/13 02:13:26;;;;;;;6.13;1.33;;;;;;;;;;5050784;28;20061;-66
2023/12/13 02:15:53;;;;;;;5.50;1.50;;;;;;;;;;5050566;28;20083;-65
2023/12/13 02:18:21;;;;;;;6.10;1.58;;;;;;;;;;5050632;28;20052;-66
2023/12/13 02:20:49;;;;;;;5.20;1.40;;;;;;;;;;5050698;28;20142;-66
2023/12/13 02:23:18;;;;;;;6.85;1.70;;;;;;;;;;5050618;28;20045;-66
2023/12/13 02:25:48;;;;;;;4.82;1.25;;;;;;;;;;5050793;28;20045;-66
2023/12/13 02:28:16;;;;;;;6.22;1.40;;;;;;;;;;5050488;28;20041;-64
2023/12/13 02:30:42;;;;;;;4.95;1.40;;;;;;;;;;5050146;28;20432;-65
2023/12/13 02:33:09;;;;;;;6.88;1.60;;;;;;;;;;5050629;28;20052;-66
2023/12/13 02:35:36;;;;;;;7.03;1.95;;;;;;;;;;5050748;28;20499;-65
2023/12/13 02:38:03;;;;;;;3.35;1.55;;;;;;;;;;5050887;28;20515;-67
2023/12/13 02:40:30;;;;;;;5.43;1.67;;;;;;;;;;5050771;28;20059;-66
2023/12/13 02:42:57;;;;;;;5.38;1.48;;;;;;;;;;5050211;28;20048;-65
2023/12/13 02:45:24;;;;;;;5.82;1.95;;;;;;;;;;5050248;28;20041;-66
2023/12/13 02:47:52;;;;;;;7.00;1.40;;;;;;;;;;5050687;28;20504;-66
2023/12/13 02:50:19;;;;;;;5.20;1.45;;;;;;;;;;5050267;28;20056;-66
2023/12/13 02:52:46;;;;;;;3.28;1.30;;;;;;;;;;5050292;28;20041;-65
2023/12/13 02:55:12;;;;;;;4.20;1.58;;;;;;;;;;5050341;28;20394;-66
2023/12/13 02:57:40;;;;;;;7.20;1.67;;;;;;;;;;5053390;28;20521;-66
2023/12/13 03:00:08;;;;;;;3.53;1.50;;;;;;;;;;5054168;28;20044;-66
2023/12/13 03:02:35;;;;;;;4.53;1.83;;;;;;;;;;5054326;28;20118;-66
2023/12/13 03:05:03;;;;;;;4.07;1.77;;;;;;;;;;5054007;28;20041;-65
2023/12/13 03:07:29;;;;;;;7.30;1.50;;;;;;;;;;5054500;28;20044;-66
2023/12/13 03:09:56;;;;;;;3.92;1.70;;;;;;;;;;5053582;28;20059;-65
2023/12/13 03:12:22;;;;;;;5.80;1.60;;;;;;;;;;5053495;28;20063;-66
2023/12/13 03:14:50;;;;;;;8.90;1.63;;;;;;;;;;5054166;28;20045;-66
2023/12/13 03:17:17;;;;;;;5.85;1.70;;;;;;;;;;5053873;28;20049;-66
2023/12/13 03:19:43;;;;;;;7.20;2.08;;;;;;;;;;5054046;28;20504;-65
2023/12/13 03:22:10;;;;;;;7.75;2.05;;;;;;;;;;5053455;28;20059;-65
2023/12/13 03:24:37;;;;;;;5.88;2.38;;;;;;;;;;5053500;28;20048;-66
2023/12/13 03:27:04;;;;;;;4.63;1.70;;;;;;;;;;5053595;28;20155;-66
2023/12/13 03:29:30;;;;;;;6.15;2.30;;;;;;;;;;5053880;28;20051;-66
2023/12/13 03:31:58;;;;;;;8.07;2.10;;;;;;;;;;5053463;28;20045;-67
2023/12/13 03:34:25;;;;;;;4.47;1.70;;;;;;;;;;5053648;28;20088;-66
2023/12/13 03:36:52;;;;;;;6.70;1.88;;;;;;;;;;5053412;28;20045;-66
2023/12/13 03:39:19;;;;;;;6.90;2.00;;;;;;;;;;5053165;28;20052;-65
2023/12/13 03:41:45;;;;;;;5.50;1.90;;;;;;;;;;5052846;28;20052;-66
2023/12/13 03:44:12;;;;;;;11.55;2.63;;;;;;;;;;5053320;28;20053;-66
2023/12/13 03:46:38;;;;;;;5.63;1.92;;;;;;;;;;5053413;28;20409;-66
2023/12/13 03:49:06;;;;;;;8.68;1.92;;;;;;;;;;5053308;28;20484;-65
2023/12/13 03:51:33;;;;;;;6.22;1.83;;;;;;;;;;5049518;28;20056;-65
2023/12/13 03:53:59;;;;;;;7.93;1.75;;;;;;;;;;5053658;28;20047;-66
2023/12/13 03:56:29;;;;;;;4.40;1.70;;;;;;;;;;5052845;28;20459;-66
2023/12/13 03:58:58;;;;;;;7.95;1.83;;;;;;;;;;5053201;28;20512;-66
2023/12/13 04:01:24;;;;;;;7.68;2.17;;;;;;;;;;5052728;28;20420;-66
2023/12/13 04:03:51;;;;;;;8.80;2.22;;;;;;;;;;5052986;28;20055;-65
2023/12/13 04:06:19;;;;;;;8.60;2.17;;;;;;;;;;5052590;28;20493;-66
2023/12/13 04:08:45;;;;;;;8.90;1.90;;;;;;;;;;5052686;28;20051;-66
2023/12/13 04:11:12;;;;;;;8.43;2.00;;;;;;;;;;5052865;28;20040;-66
2023/12/13 04:13:39;;;;;;;8.05;2.20;;;;;;;;;;5053218;28;20048;-66
2023/12/13 04:16:06;;;;;;;4.43;1.90;;;;;;;;;;5052870;28;20490;-65
2023/12/13 04:18:33;;;;;;;7.07;1.95;;;;;;;;;;5049371;28;20060;-65
2023/12/13 04:20:59;;;;;;;11.00;2.22;;;;;;;;;;5052103;28;20045;-65
2023/12/13 04:23:27;;;;;;;7.85;2.90;;;;;;;;;;5052844;28;20059;-65
2023/12/13 04:25:54;;;;;;;8.15;2.33;;;;;;;;;;5052573;28;20041;-66
2023/12/13 04:28:20;;;;;;;7.53;2.83;;;;;;;;;;5052448;28;20040;-65
2023/12/13 04:30:47;;;;;;;9.00;3.00;;;;;;;;;;5052167;28;20040;-66
2023/12/13 04:33:18;;;;;;;9.30;3.28;;;;;;;;;;5052508;28;20049;-66
2023/12/13 04:35:44;;;;;;;8.20;3.05;;;;;;;;;;5052108;28;20079;-66
2023/12/13 04:38:11;;;;;;;11.02;3.65;;;;;;;;;;5052541;28;20534;-66
2023/12/13 04:40:39;;;;;;;12.73;5.03;;;;;;;;;;5052142;28;20045;-67
2023/12/13 04:43:05;;;;;;;8.07;3.25;;;;;;;;;;5052148;28;20055;-66
2023/12/13 04:45:32;;;;;;;8.50;3.58;;;;;;;;;;5052219;28;20049;-66
2023/12/13 04:47:59;;;;;;;7.50;3.63;;;;;;;;;;5048175;28;20483;-65
2023/12/13 04:50:25;;;;;;;9.38;2.72;;;;;;;;;;5051624;28;20535;-67
2023/12/13 04:52:52;;;;;;;7.57;2.80;;;;;;;;;;5052015;28;20055;-66
2023/12/13 04:55:18;;;;;;;8.25;3.05;;;;;;;;;;5051710;28;20041;-65
2023/12/13 04:57:46;;;;;;;10.05;3.17;;;;;;;;;;5051850;28;20048;-66
2023/12/13 05:00:14;;;;;;;6.57;3.13;;;;;;;;;;5051753;28;20052;-66
2023/12/13 05:02:40;;;;;;;11.50;3.03;;;;;;;;;;5052051;28;20095;-65
2023/12/13 05:05:08;;;;;;;9.63;2.30;;;;;;;;;;5051906;28;20049;-66
2023/12/13 05:07:34;;;;;;;6.60;2.25;;;;;;;;;;5051947;28;20049;-65
2023/12/13 05:10:01;;;;;;;10.60;2.63;;;;;;;;;;5051385;28;20531;-65
2023/12/13 05:12:27;;;;;;;10.80;2.30;;;;;;;;;;5051776;28;20045;-66
2023/12/13 05:14:55;;;;;;;10.63;2.28;;;;;;;;;;5051583;28;20415;-66
2023/12/13 05:17:22;;;;;;;7.13;2.40;;;;;;;;;;5051179;28;20051;-66
2023/12/13 05:19:48;;;;;;;6.40;2.22;;;;;;;;;;5050670;28;20045;-65
2023/12/13 05:22:15;;;;;;;6.05;2.20;;;;;;;;;;5051262;28;20041;-65
2023/12/13 05:24:42;;;;;;;8.68;2.55;;;;;;;;;;5051609;28;20129;-65
2023/12/13 05:27:08;;;;;;;8.15;2.35;;;;;;;;;;5051580;28;20041;-66
2023/12/13 05:29:35;;;;;;;8.57;2.20;;;;;;;;;;5051368;28;20407;-66
2023/12/13 05:32:04;;;;;;;7.18;1.88;;;;;;;;;;5051193;28;20051;-66
2023/12/13 05:34:30;;;;;;;6.18;2.35;;;;;;;;;;5051442;28;20141;-66
2023/12/13 05:36:57;;;;;;;10.85;2.13;;;;;;;;;;5051358;28;20122;-66
2023/12/13 05:39:23;;;;;;;7.78;2.03;;;;;;;;;;5051213;28;20048;-66
2023/12/13 05:41:50;;;;;;;6.70;2.00;;;;;;;;;;5050735;28;20048;-66
2023/12/13 05:44:16;;;;;;;4.22;1.90;;;;;;;;;;5050924;28;20048;-66
2023/12/13 05:46:43;;;;;;;8.82;2.53;;;;;;;;;;5051253;28;20045;-65
2023/12/13 05:49:11;;;;;;;4.35;1.58;;;;;;;;;;5051376;28;20041;-66
2023/12/13 05:51:38;;;;;;;5.90;1.70;;;;;;;;;;5050861;28;20049;-66
2023/12/13 05:54:05;;;;;;;7.72;1.80;;;;;;;;;;5051154;28;20041;-66
2023/12/13 05:56:32;;;;;;;4.50;1.70;;;;;;;;;;5047214;28;20049;-66
2023/12/13 05:58:58;;;;;;;3.58;1.08;;;;;;;;;;5051013;28;20049;-66
2023/12/13 06:01:25;;;;;;;3.63;1.10;;;;;;;;;;5050489;28;20055;-66
2023/12/13 06:03:51;;;;;;;3.25;1.13;;;;;;;;;;5050959;28;20049;-66
2023/12/13 06:06:20;;;;;;;2.53;0.98;;;;;;;;;;5050684;28;20071;-66
2023/12/13 06:08:46;;;;;;;2.17;1.00;;;;;;;;;;5050576;28;20052;-66
2023/12/13 06:11:13;;;;;;;4.63;1.00;;;;;;;;;;5050064;28;20049;-66
2023/12/13 06:13:39;;;;;;;3.88;0.95;;;;;;;;;;5050648;28;20041;-66
2023/12/13 06:16:12;;;;;;;2.90;1.13;;;;;;;;;;5050650;28;20052;-66
2023/12/13 06:18:38;;;;;;;3.85;1.17;;;;;;;;;;5050817;28;20144;-65
2023/12/13 06:21:06;;;;;;;3.58;1.27;;;;;;;;;;5050218;28;20049;-66
2023/12/13 06:23:34;;;;;;;2.55;1.20;;;;;;;;;;5047294;28;20056;-66
2023/12/13 06:26:01;;;;;;;1.77;1.05;;;;;;;;;;5047273;28;20076;-66
2023/12/13 06:28:27;;;;;;;4.15;1.25;;;;;;;;;;5050211;28;20072;-66
2023/12/13 06:30:54;;;;;;;2.72;1.48;;;;;;;;;;5052590;28;20051;-65
2023/12/13 06:33:20;;;;;;;2.92;1.20;;;;;;;;;;5054645;28;20132;-66
2023/12/13 06:35:48;;;;;;;2.10;1.20;;;;;;;;;;5054503;28;20045;-66
2023/12/13 06:38:14;;;;;;;7.75;2.65;;;;;;;;;;5054268;28;20041;-66
2023/12/13 06:40:42;;;;;;;3.85;1.40;;;;;;;;;;5053878;28;20055;-66
2023/12/13 06:43:09;;;;;;;4.88;1.35;;;;;;;;;;5054243;28;20059;-66
2023/12/13 06:45:35;;;;;;;4.53;1.58;;;;;;;;;;5054466;28;20047;-66
2023/12/13 06:48:02;;;;;;;6.22;2.58;;;;;;;;;;5054441;28;20045;-66
2023/12/13 06:50:29;;;;;;;9.32;1.98;;;;;;;;;;5054125;28;20056;-66
2023/12/13 06:52:55;;;;;;;5.55;2.17;;;;;;;;;;5053831;28;20056;-66
2023/12/13 06:55:22;;;;;;;5.70;2.33;;;;;;;;;;5054005;28;20053;-66
2023/12/13 06:57:51;;;;;;;3.38;1.75;;;;;;;;;;5054217;28;20045;-66
2023/12/13 07:00:21;;;;;;;3.70;1.48;;;;;;;;;;5053747;28;20044;-66
2023/12/13 07:02:47;;;;;;;4.13;2.08;;;;;;;;;;5053945;28;20049;-66
2023/12/13 07:05:18;;;;;;;5.38;2.17;;;;;;;;;;5053967;28;20051;-66
2023/12/13 07:07:46;;;;;;;4.07;1.67;;;;;;;;;;5053761;28;20135;-65
2023/12/13 07:10:13;;;;;;;6.68;2.00;;;;;;;;;;5046668;28;20099;-66
2023/12/13 07:12:42;;;;;;;5.10;2.15;;;;;;;;;;5049647;28;20068;-68
2023/12/13 07:15:12;;;;;;;2.95;1.83;;;;;;;;;;5050583;28;20044;-65
2023/12/13 07:17:38;;;;;;;5.13;1.60;;;;;;;;;;5049115;28;20041;-65
2023/12/13 07:20:06;;;;;;;2.97;1.60;;;;;;;;;;5047899;28;20049;-65
2023/12/13 07:22:33;;;;;;;6.10;1.95;;;;;;;;;;5046602;28;20059;-66
2023/12/13 07:24:59;;;;;;;3.33;1.48;;;;;;;;;;5045531;28;20040;-66
2023/12/13 07:27:26;;;;;;;4.25;1.65;;;;;;;;;;5050132;28;20052;-66
2023/12/13 07:29:53;;;;;;;5.10;2.25;;;;;;;;;;5045693;28;20051;-66
2023/12/13 07:32:20;;;;;;;2.50;1.70;;;;;;;;;;5050366;28;20041;-66
2023/12/13 07:34:48;;;;;;;4.70;2.05;;;;;;;;;;5052146;28;20513;-65
2023/12/13 07:37:15;;;;;;;6.05;1.85;;;;;;;;;;5050090;28;20047;-66
2023/12/13 07:39:42;;;;;;;2.60;1.73;;;;;;;;;;5050610;28;20117;-66
2023/12/13 07:42:09;;;;;;;5.63;2.72;;;;;;;;;;5051098;28;20496;-66
2023/12/13 07:44:35;;;;;;;3.67;1.98;;;;;;;;;;5052536;28;20041;-66
2023/12/13 07:47:02;;;;;;;4.15;1.88;;;;;;;;;;5051032;28;20055;-66
2023/12/13 07:49:30;;;;;;;5.38;2.15;;;;;;;;;;5050391;28;20479;-66
2023/12/13 07:51:57;;;;;;;7.53;2.55;;;;;;;;;;5042499;28;20563;-66
2023/12/13 07:54:23;;;;;;;6.38;3.72;;;;;;;;;;5045772;28;20057;-66
2023/12/13 07:56:52;;;;;;;8.82;4.43;;;;;;;;;;5046656;28;20424;-66
2023/12/13 07:59:19;;;;;;;9.38;3.47;;;;;;;;;;5046562;28;20475;-66
2023/12/13 08:01:45;;;;;;;7.22;2.70;;;;;;;;;;5047028;28;20151;-65
2023/12/13 08:04:12;;;;;;;8.38;2.42;;;;;;;;;;5044980;28;20052;-66
2023/12/13 08:06:40;;;;;;;4.38;2.22;;;;;;;;;;5046916;28;20135;-66
2023/12/13 08:09:09;;;;;;;6.28;2.00;;;;;;;;;;5041209;28;20041;-66
2023/12/13 08:11:35;;;;;;;5.93;2.53;;;;;;;;;;5043717;28;20056;-66
2023/12/13 08:14:03;;;;;;;3.65;1.73;;;;;;;;;;5049769;28;20052;-66
2023/12/13 08:16:30;;;;;;;3.67;1.60;;;;;;;;;;5048633;28;20124;-66
2023/12/13 08:18:57;;;;;;;5.28;1.98;;;;;;;;;;5052681;28;20512;-66
2023/12/13 08:21:24;;;;;;;5.57;2.10;;;;;;;;;;5052272;28;20057;-66
2023/12/13 08:23:52;;;;;;;8.93;2.17;;;;;;;;;;5052388;28;20045;-66
2023/12/13 08:26:20;;;;;;;4.80;1.70;;;;;;;;;;5052469;28;20056;-66
2023/12/13 08:28:46;;;;;;;5.22;2.10;;;;;;;;;;5050042;28;20052;-66
2023/12/13 08:31:13;;;;;;;6.03;2.45;;;;;;;;;;5051488;28;20132;-66
2023/12/13 08:33:41;;;;;;;4.40;1.75;;;;;;;;;;5052288;28;20135;-66
2023/12/13 08:36:10;;;;;;;4.53;1.60;;;;;;;;;;5052432;28;20468;-66
2023/12/13 08:38:36;;;;;;;3.95;1.30;;;;;;;;;;5049184;28;20421;-66
2023/12/13 08:41:07;;;;;;;3.47;1.98;;;;;;;;;;5050945;28;20432;-66
2023/12/13 08:43:34;;;;;;;4.30;1.40;;;;;;;;;;5047442;28;20045;-66
2023/12/13 08:46:01;;;;;;;4.93;1.60;;;;;;;;;;5051581;28;20474;-66
2023/12/13 08:48:28;;;;;;;3.67;1.77;;;;;;;;;;5050933;28;20384;-66
2023/12/13 08:50:55;;;;;;;4.47;1.60;;;;;;;;;;5047179;28;20136;-66
2023/12/13 08:53:21;;;;;;;5.15;2.13;;;;;;;;;;5047966;28;20484;-66
2023/12/13 08:55:48;;;;;;;4.25;1.95;;;;;;;;;;5043472;28;20048;-65
2023/12/13 08:58:16;;;;;;;8.73;2.20;;;;;;;;;;5049780;28;20416;-66
2023/12/13 09:00:44;;;;;;;6.43;2.60;;;;;;;;;;5050143;28;20439;-66
2023/12/13 09:03:11;;;;;;;6.47;2.38;;;;;;;;;;5049835;28;20044;-66
2023/12/13 09:05:38;;;;;;;4.07;1.88;;;;;;;;;;5049059;28;20055;-66
2023/12/13 09:08:05;;;;;;;2.47;1.75;;;;;;;;;;5049325;28;20056;-66
2023/12/13 09:10:34;;;;;;;7.53;2.75;;;;;;;;;;5048318;28;20475;-66
2023/12/13 09:13:02;;;;;;;5.97;2.33;;;;;;;;;;5048148;28;20055;-66
2023/12/13 09:15:31;;;;;;;4.95;2.33;;;;;;;;;;5046362;28;20040;-66
2023/12/13 09:17:59;;;;;;;4.43;2.00;;;;;;;;;;5036756;28;20108;-66
2023/12/13 09:20:26;;;;;;;4.47;2.28;;;;;;;;;;5039273;28;20051;-67
2023/12/13 09:22:52;;;;;;;5.50;2.50;;;;;;;;;;5037709;28;20045;-68
2023/12/13 09:25:19;;;;;;;5.10;2.95;;;;;;;;;;5038888;28;20408;-67
2023/12/13 09:27:48;;;;;;;3.72;2.55;;;;;;;;;;5035571;28;20051;-67
2023/12/13 09:30:15;;;;;;;4.90;2.80;;;;;;;;;;5047298;28;20411;-67
2023/12/13 09:32:43;;;;;;;5.75;2.70;;;;;;;;;;5049231;28;20535;-68
2023/12/13 09:35:12;;;;;;;6.07;2.80;;;;;;;;;;5048829;28;20132;-68
2023/12/13 09:37:40;;;;;;;6.70;2.30;;;;;;;;;;5046378;28;20103;-68
2023/12/13 09:40:14;;;;;;;11.48;2.78;;;;;;;;;;5048123;28;20059;-67
2023/12/13 09:42:45;;;;;;;5.22;3.13;;;;;;;;;;5049701;28;20049;-68
2023/12/13 09:45:18;;;;;;;7.00;3.20;;;;;;;;;;5048164;28;20045;-67
2023/12/13 09:47:45;;;;;;;;;;;;;;;;;;5048810;28;20055;-68
2023/12/13 09:50:12;;;;;;;7.65;3.10;;;;;;;;;;5049299;28;20373;-67
2023/12/13 09:52:42;;;;;;;3.95;2.40;;;;;;;;;;5048338;28;20047;-67
2023/12/13 09:55:09;;;;;;;8.38;3.08;;;;;;;;;;5049047;28;20059;-67
2023/12/13 09:57:36;;;;;;;6.70;3.20;;;;;;;;;;5049862;28;20508;-67
2023/12/13 10:00:03;;;;;;;6.70;2.10;;;;;;;;;;5047867;28;20041;-67
2023/12/13 10:02:30;;;;;;;6.43;1.95;;;;;;;;;;5048573;28;20055;-67
2023/12/13 10:04:59;;;;;;;4.85;2.17;;;;;;;;;;5048955;28;20052;-68
2023/12/13 10:07:25;;;;;;;6.05;2.20;;;;;;;;;;5048804;28;20049;-68
2023/12/13 10:09:55;;;;;;;5.53;1.90;;;;;;;;;;5049662;28;20489;-67
2023/12/13 10:12:22;;;;;;;5.05;2.72;;;;;;;;;;5047872;28;20567;-68
2023/12/13 10:14:49;;;;;;;5.18;2.20;;;;;;;;;;5049171;28;20129;-67
2023/12/13 10:17:15;;;;;;;5.28;2.15;;;;;;;;;;5044715;28;20049;-67
2023/12/13 10:19:44;;;;;;;6.03;2.30;;;;;;;;;;5049575;28;20051;-68
2023/12/13 10:22:12;;;;;;;5.25;1.52;;;;;;;;;;5049953;28;20048;-67
2023/12/13 10:24:38;;;;;;;4.90;1.45;;;;;;;;;;5049812;28;20052;-67
2023/12/13 10:27:09;;;;;;;3.85;1.20;;;;;;;;;;5048703;28;20069;-67
2023/12/13 10:29:36;;;;;;;3.22;1.73;;;;;;;;;;5050083;28;20514;-67
2023/12/13 10:32:03;;;;;;;3.42;1.55;;;;;;;;;;5045025;28;20051;-67
2023/12/13 10:34:30;;;;;;;3.42;1.60;;;;;;;;;;5049733;28;20151;-68
2023/12/13 10:36:57;;;;;;;4.13;1.45;;;;;;;;;;5050110;28;20423;-67
2023/12/13 10:39:26;;;;;;;6.32;1.80;;;;;;;;;;5048530;28;20103;-68
2023/12/13 10:41:56;;;;;;;5.05;1.40;;;;;;;;;;5048514;28;20049;-67
2023/12/13 10:44:24;;;;;;;6.07;2.13;;;;;;;;;;5049628;28;20043;-67
2023/12/13 10:46:56;;;;;;;4.63;1.20;;;;;;;;;;5048530;28;20411;-68
2023/12/13 10:49:24;;;;;;;4.82;1.30;;;;;;;;;;5046817;28;20115;-67
2023/12/13 10:51:52;;;;;;;6.10;1.60;;;;;;;;;;5045800;28;20052;-67
2023/12/13 10:54:19;;;;;;;4.25;1.42;;;;;;;;;;5049706;28;20049;-67
2023/12/13 10:56:48;;;;;;;6.40;1.45;;;;;;;;;;5049365;28;20102;-68
2023/12/13 10:59:16;;;;;;;5.43;1.83;;;;;;;;;;5049806;28;20055;-68
2023/12/13 11:01:45;;;;;;;11.18;1.60;;;;;;;;;;5048869;28;20073;-68
2023/12/13 11:04:16;;;;;;;6.03;1.73;;;;;;;;;;5049263;28;20049;-68
2023/12/13 11:06:45;;;;;;;5.10;1.73;;;;;;;;;;5050105;28;20049;-67
2023/12/13 11:09:13;;;;;;;5.20;1.95;;;;;;;;;;5050339;28;20053;-68
2023/12/13 11:11:41;;;;;;;7.13;2.30;;;;;;;;;;5047146;28;20051;-68
2023/12/13 11:14:11;;;;;;;5.75;2.40;;;;;;;;;;5050484;28;20056;-68
2023/12/13 11:16:39;;;;;;;4.82;1.85;;;;;;;;;;5047038;28;20061;-68
2023/12/13 11:19:06;;;;;;;4.88;1.50;;;;;;;;;;5053083;28;20072;-68
2023/12/13 11:21:33;;;;;;;6.85;1.80;;;;;;;;;;5052325;28;20048;-67
2023/12/13 11:24:08;;;;;;;7.20;1.73;;;;;;;;;;5051426;28;20064;-66
2023/12/13 11:26:39;;;;;;;3.78;2.00;;;;;;;;;;5047640;28;20485;-67
2023/12/13 11:29:15;;;;;;;5.45;1.70;;;;;;;;;;5053356;28;20430;-68
2023/12/13 11:31:50;;;;;;;5.28;1.58;;;;;;;;;;5048250;28;20095;-68
2023/12/13 11:34:17;;;;;;;6.60;1.48;;;;;;;;;;5052705;28;20045;-67
2023/12/13 11:36:43;;;;;;;4.88;2.00;;;;;;;;;;5052942;28;20525;-67
2023/12/13 11:39:10;;;;;;;3.35;1.30;;;;;;;;;;5053115;28;20051;-67
2023/12/13 11:41:37;;;;;;;8.68;2.55;;;;;;;;;;5052635;28;20072;-67
2023/12/13 11:44:05;;;;;;;5.50;1.15;;;;;;;;;;5052499;28;20052;-67
2023/12/13 11:46:33;;;;;;;4.63;1.40;;;;;;;;;;5051023;28;20052;-67
2023/12/13 11:49:00;;;;;;;5.88;1.65;;;;;;;;;;5050259;28;20109;-67
2023/12/13 11:51:26;;;;;;;7.50;2.22;;;;;;;;;;5052200;28;20044;-67
2023/12/13 11:53:54;;;;;;;6.60;2.05;;;;;;;;;;5051104;28;20052;-67
2023/12/13 11:56:25;;;;;;;4.93;1.42;;;;;;;;;;5045941;28;20046;-67
2023/12/13 11:58:52;;;;;;;4.57;1.20;;;;;;;;;;5051365;28;20080;-67
2023/12/13 12:01:19;;;;;;;5.82;1.45;;;;;;;;;;5051684;28;20087;-67
2023/12/13 12:03:48;;;;;;;7.90;2.38;;;;;;;;;;5052859;28;20510;-67
2023/12/13 12:06:16;;;;;;;5.50;1.48;;;;;;;;;;5052258;28;20132;-67
2023/12/13 12:08:43;;;;;;;3.63;1.38;;;;;;;;;;5052066;28;20515;-68
2023/12/13 12:11:12;;;;;;;7.57;1.50;;;;;;;;;;5043632;28;20071;-67
2023/12/13 12:13:41;;;;;;;6.95;1.60;;;;;;;;;;5049630;28;20063;-66
2023/12/13 12:16:09;;;;;;;5.13;1.63;;;;;;;;;;5048626;28;20045;-67
2023/12/13 12:18:38;;;;;;;6.25;1.50;;;;;;;;;;5050213;28;20045;-67
2023/12/13 12:21:08;;;;;;;5.60;1.50;;;;;;;;;;5052144;28;20045;-67
2023/12/13 12:23:35;;;;;;;4.63;1.90;;;;;;;;;;5052201;28;20041;-66
2023/12/13 12:26:06;;;;;;;8.13;1.90;;;;;;;;;;5052395;28;20053;-68
2023/12/13 12:28:33;;;;;;;7.43;1.48;;;;;;;;;;5048368;28;20416;-67
2023/12/13 12:30:59;;;;;;;4.68;1.50;;;;;;;;;;5050674;28;20045;-68
2023/12/13 12:33:26;;;;;;;3.58;1.40;;;;;;;;;;5052510;28;20048;-67
2023/12/13 12:35:53;;;;;;;9.15;1.73;;;;;;;;;;5052407;28;20060;-67
2023/12/13 12:38:21;;;;;;;4.57;1.48;;;;;;;;;;5052242;28;20049;-67
2023/12/13 12:40:48;;;;;;;7.32;1.60;;;;;;;;;;5051903;28;20064;-67
2023/12/13 12:43:18;;;;;;;4.07;1.50;;;;;;;;;;5051876;28;20049;-67
2023/12/13 12:45:45;;;;;;;7.90;1.77;;;;;;;;;;5050541;28;20505;-67
2023/12/13 12:48:12;;;;;;;2.75;1.20;;;;;;;;;;5052315;28;20051;-67
2023/12/13 12:50:38;;;;;;;4.55;1.20;;;;;;;;;;5050461;28;20045;-67
2023/12/13 12:53:05;;;;;;;2.60;1.20;;;;;;;;;;5052265;28;20052;-67
2023/12/13 12:55:33;;;;;;;7.25;1.70;;;;;;;;;;5052011;28;20072;-67
2023/12/13 12:58:00;;;;;;;4.43;1.38;;;;;;;;;;5051951;28;20045;-66
2023/12/13 13:00:27;;;;;;;8.23;1.55;;;;;;;;;;5051625;28;20501;-67
2023/12/13 13:02:54;;;;;;;5.82;1.98;;;;;;;;;;5050254;28;20045;-67
2023/12/13 13:05:20;;;;;;;5.60;1.40;;;;;;;;;;5051771;28;20048;-67
2023/12/13 13:07:47;;;;;;;5.35;1.60;;;;;;;;;;5051699;28;20055;-67
2023/12/13 13:10:14;;;;;;;5.82;1.55;;;;;;;;;;5051062;28;20045;-67
2023/12/13 13:12:42;;;;;;;5.68;1.40;;;;;;;;;;5046884;28;20055;-67
2023/12/13 13:15:10;;;;;;;7.60;1.85;;;;;;;;;;5047657;28;20569;-67
2023/12/13 13:17:37;;;;;;;6.32;1.77;;;;;;;;;;5050135;28;20127;-66
2023/12/13 13:20:12;;;;;;;5.65;1.92;;;;;;;;;;5050176;28;20045;-67
2023/12/13 13:22:39;;;;;;;5.70;2.28;;;;;;;;;;5046732;28;20420;-67
2023/12/13 13:25:07;;;;;;;4.65;1.48;;;;;;;;;;5044120;28;20073;-66
2023/12/13 13:27:35;;;;;;;3.17;1.55;;;;;;;;;;5050671;28;20072;-66
2023/12/13 13:30:04;;;;;;;5.00;1.40;;;;;;;;;;5047071;28;20048;-66
2023/12/13 13:32:31;;;;;;;3.85;1.42;;;;;;;;;;5046725;28;20481;-67
2023/12/13 13:34:59;;;;;;;4.28;1.27;;;;;;;;;;5048366;28;20049;-66
2023/12/13 13:37:26;;;;;;;3.33;1.42;;;;;;;;;;5050052;28;20063;-66
2023/12/13 13:39:53;;;;;;;5.63;1.58;;;;;;;;;;5050064;28;20569;-66
2023/12/13 13:42:20;;;;;;;3.63;1.40;;;;;;;;;;5048353;28;20056;-66
2023/12/13 13:44:46;;;;;;;5.18;1.85;;;;;;;;;;5049887;28;20124;-67
2023/12/13 13:47:14;;;;;;;6.18;2.00;;;;;;;;;;5045097;28;20049;-67
2023/12/13 13:49:41;;;;;;;3.67;1.42;;;;;;;;;;5049489;28;20051;-66
2023/12/13 13:52:07;;;;;;;3.58;1.13;;;;;;;;;;5047605;28;20520;-66
2023/12/13 13:54:34;;;;;;;3.30;1.55;;;;;;;;;;5047928;28;20110;-67
2023/12/13 13:57:04;;;;;;;7.65;1.35;;;;;;;;;;5048160;28;20044;-66
2023/12/13 13:59:30;;;;;;;4.88;1.55;;;;;;;;;;5047326;28;20124;-66
2023/12/13 14:01:57;;;;;;;5.97;1.60;;;;;;;;;;5045466;28;20059;-66
2023/12/13 14:04:25;;;;;;;4.97;1.30;;;;;;;;;;5046666;28;20139;-66
2023/12/13 14:06:52;;;;;;;5.63;1.55;;;;;;;;;;5047892;28;20117;-67
2023/12/13 14:09:19;;;;;;;5.53;1.80;;;;;;;;;;5048868;28;20123;-66
2023/12/13 14:11:46;;;;;;;5.55;1.70;;;;;;;;;;5049338;28;20041;-66
2023/12/13 14:14:14;;;;;;;6.32;3.63;;;;;;;;;;5049961;28;20048;-66
2023/12/13 14:16:40;;;;;;;13.55;6.60;;;;;;;;;;5049661;28;20607;-66
2023/12/13 14:19:07;;;;;;;8.73;4.72;;;;;;;;;;5049051;28;20506;-66
2023/12/13 14:21:38;;;;;;;6.50;3.70;;;;;;;;;;5049957;28;20055;-67
2023/12/13 14:24:05;;;;;;;7.85;3.33;;;;;;;;;;5046128;28;20519;-67
2023/12/13 14:26:31;;;;;;;6.43;2.80;;;;;;;;;;5049085;28;20084;-66
2023/12/13 14:28:58;;;;;;;4.25;1.80;;;;;;;;;;5048234;28;20534;-66
2023/12/13 14:31:25;;;;;;;6.05;2.03;;;;;;;;;;5046895;28;20083;-67
2023/12/13 14:33:51;;;;;;;7.03;1.20;;;;;;;;;;5046775;28;20053;-66
2023/12/13 14:36:18;;;;;;;3.78;1.40;;;;;;;;;;5048843;28;20041;-66
2023/12/13 14:38:46;;;;;;;3.85;1.60;;;;;;;;;;5049723;28;20052;-66
2023/12/13 14:41:13;;;;;;;3.22;1.10;;;;;;;;;;5048568;28;20311;-66
2023/12/13 14:43:40;;;;;;;5.72;1.98;;;;;;;;;;5050118;28;20048;-66